sensor_id;sensor_type;location;lat;lon;timestamp;temperature;humidity
21312;DHT22;18076;52.154;10.570;2024-03-02T00:00:43;7.80;99.90
21312;DHT22;18076;52.154;10.570;2024-03-02T00:03:09;7.80;99.90
21312;DHT22;18076;52.154;10.570;2024-03-02T00:05:35;7.90;99.90
21312;DHT22;18076;52.154;10.570;2024-03-02T00:08:00;7.90;99.90
21312;DHT22;18076;52.154;10.570;2024-03-02T00:10:27;7.90;99.90
21312;DHT22;18076;52.154;10.570;2024-03-02T00:12:56;7.90;99.90
21312;DHT22;18076;52.154;10.570;2024-03-02T00:18:00;7.90;99.90
21312;DHT22;18076;52.154;10.570;2024-03-02T00:20:26;7.90;99.90
21312;DHT22;18076;52.154;10.570;2024-03-02T00:23:04;7.90;99.90
21312;DHT22;18076;52.154;10.570;2024-03-02T00:25:40;7.90;99.90
21312;DHT22;18076;52.154;10.570;2024-03-02T00:30:56;7.90;99.90
21312;DHT22;18076;52.154;10.570;2024-03-02T00:33:23;7.80;99.90
21312;DHT22;18076;52.154;10.570;2024-03-02T00:35:49;7.80;99.90
21312;DHT22;18076;52.154;10.570;2024-03-02T00:38:15;7.80;99.90
21312;DHT22;18076;52.154;10.570;2024-03-02T00:40:41;7.90;99.90
21312;DHT22;18076;52.154;10.570;2024-03-02T00:43:10;7.90;99.90
21312;DHT22;18076;52.154;10.570;2024-03-02T00:45:39;7.90;99.90
21312;DHT22;18076;52.154;10.570;2024-03-02T00:48:04;7.80;99.90
21312;DHT22;18076;52.154;10.570;2024-03-02T00:50:30;7.80;99.90
21312;DHT22;18076;52.154;10.570;2024-03-02T00:52:57;7.70;99.90
21312;DHT22;18076;52.154;10.570;2024-03-02T00:55:23;7.70;99.90
21312;DHT22;18076;52.154;10.570;2024-03-02T00:57:48;7.60;99.90
21312;DHT22;18076;52.154;10.570;2024-03-02T01:00:14;7.60;99.90
21312;DHT22;18076;52.154;10.570;2024-03-02T01:02:41;7.60;99.90
21312;DHT22;18076;52.154;10.570;2024-03-02T01:05:09;7.50;99.90
21312;DHT22;18076;52.154;10.570;2024-03-02T01:07:34;7.50;99.90
21312;DHT22;18076;52.154;10.570;2024-03-02T01:10:00;7.50;99.90
21312;DHT22;18076;52.154;10.570;2024-03-02T01:12:25;7.50;99.90
21312;DHT22;18076;52.154;10.570;2024-03-02T01:14:51;7.50;99.90
21312;DHT22;18076;52.154;10.570;2024-03-02T01:17:16;7.40;99.90
21312;DHT22;18076;52.154;10.570;2024-03-02T01:19:42;7.40;99.90
21312;DHT22;18076;52.154;10.570;2024-03-02T01:22:07;7.40;99.90
21312;DHT22;18076;52.154;10.570;2024-03-02T01:24:33;7.30;99.90
21312;DHT22;18076;52.154;10.570;2024-03-02T01:26:59;7.30;99.90
21312;DHT22;18076;52.154;10.570;2024-03-02T01:29:24;7.30;99.90
21312;DHT22;18076;52.154;10.570;2024-03-02T01:31:50;7.30;99.90
21312;DHT22;18076;52.154;10.570;2024-03-02T01:34:16;7.30;99.90
21312;DHT22;18076;52.154;10.570;2024-03-02T01:36:42;7.40;99.90
21312;DHT22;18076;52.154;10.570;2024-03-02T01:39:07;7.40;99.90
21312;DHT22;18076;52.154;10.570;2024-03-02T01:41:34;7.30;99.90
21312;DHT22;18076;52.154;10.570;2024-03-02T01:44:00;7.40;99.90
21312;DHT22;18076;52.154;10.570;2024-03-02T01:46:25;7.40;99.90
21312;DHT22;18076;52.154;10.570;2024-03-02T01:48:51;7.40;99.90
21312;DHT22;18076;52.154;10.570;2024-03-02T01:51:17;7.40;99.90
21312;DHT22;18076;52.154;10.570;2024-03-02T01:53:43;7.50;99.90
21312;DHT22;18076;52.154;10.570;2024-03-02T01:56:09;7.50;99.90
21312;DHT22;18076;52.154;10.570;2024-03-02T01:58:34;7.50;99.90
21312;DHT22;18076;52.154;10.570;2024-03-02T02:01:00;7.40;99.90
21312;DHT22;18076;52.154;10.570;2024-03-02T02:03:25;7.40;99.90
21312;DHT22;18076;52.154;10.570;2024-03-02T02:05:51;7.40;99.90
21312;DHT22;18076;52.154;10.570;2024-03-02T02:08:16;7.30;99.90
21312;DHT22;18076;52.154;10.570;2024-03-02T02:10:42;7.30;99.90
21312;DHT22;18076;52.154;10.570;2024-03-02T02:13:08;7.40;99.90
21312;DHT22;18076;52.154;10.570;2024-03-02T02:15:33;7.30;99.90
21312;DHT22;18076;52.154;10.570;2024-03-02T02:18:01;7.30;99.90
21312;DHT22;18076;52.154;10.570;2024-03-02T02:20:27;7.30;99.90
21312;DHT22;18076;52.154;10.570;2024-03-02T02:25:21;7.40;99.90
21312;DHT22;18076;52.154;10.570;2024-03-02T02:27:46;7.40;99.90
21312;DHT22;18076;52.154;10.570;2024-03-02T02:30:12;7.40;99.90
21312;DHT22;18076;52.154;10.570;2024-03-02T02:32:38;7.40;99.90
21312;DHT22;18076;52.154;10.570;2024-03-02T02:35:03;7.40;99.90
21312;DHT22;18076;52.154;10.570;2024-03-02T02:37:30;7.40;99.90
21312;DHT22;18076;52.154;10.570;2024-03-02T02:39:56;7.50;99.90
21312;DHT22;18076;52.154;10.570;2024-03-02T02:42:22;7.40;99.90
21312;DHT22;18076;52.154;10.570;2024-03-02T02:44:47;7.50;99.90
21312;DHT22;18076;52.154;10.570;2024-03-02T02:47:13;7.50;99.90
21312;DHT22;18076;52.154;10.570;2024-03-02T02:49:41;7.50;99.90
21312;DHT22;18076;52.154;10.570;2024-03-02T02:52:07;7.50;99.90
21312;DHT22;18076;52.154;10.570;2024-03-02T02:54:32;7.50;99.90
21312;DHT22;18076;52.154;10.570;2024-03-02T02:56:58;7.50;99.90
21312;DHT22;18076;52.154;10.570;2024-03-02T02:59:24;7.50;99.90
21312;DHT22;18076;52.154;10.570;2024-03-02T03:01:51;7.50;99.90
21312;DHT22;18076;52.154;10.570;2024-03-02T03:04:16;7.40;99.90
21312;DHT22;18076;52.154;10.570;2024-03-02T03:06:42;7.40;99.90
21312;DHT22;18076;52.154;10.570;2024-03-02T03:09:08;7.40;99.90
21312;DHT22;18076;52.154;10.570;2024-03-02T03:11:36;7.40;99.90
21312;DHT22;18076;52.154;10.570;2024-03-02T03:14:01;7.40;99.90
21312;DHT22;18076;52.154;10.570;2024-03-02T03:16:27;7.40;99.90
21312;DHT22;18076;52.154;10.570;2024-03-02T03:18:53;7.40;99.90
21312;DHT22;18076;52.154;10.570;2024-03-02T03:21:18;7.40;99.90
21312;DHT22;18076;52.154;10.570;2024-03-02T03:23:44;7.30;99.90
21312;DHT22;18076;52.154;10.570;2024-03-02T03:26:10;7.30;99.90
21312;DHT22;18076;52.154;10.570;2024-03-02T03:28:36;7.30;99.90
21312;DHT22;18076;52.154;10.570;2024-03-02T03:31:01;7.20;99.90
21312;DHT22;18076;52.154;10.570;2024-03-02T03:33:27;7.10;99.90
21312;DHT22;18076;52.154;10.570;2024-03-02T03:35:53;7.20;99.90
21312;DHT22;18076;52.154;10.570;2024-03-02T03:38:18;7.10;99.90
21312;DHT22;18076;52.154;10.570;2024-03-02T03:40:44;7.20;99.90
21312;DHT22;18076;52.154;10.570;2024-03-02T03:43:10;7.10;99.90
21312;DHT22;18076;52.154;10.570;2024-03-02T03:45:36;7.10;99.90
21312;DHT22;18076;52.154;10.570;2024-03-02T03:48:02;7.10;99.90
21312;DHT22;18076;52.154;10.570;2024-03-02T03:50:27;7.00;99.90
21312;DHT22;18076;52.154;10.570;2024-03-02T03:52:53;7.00;99.90
21312;DHT22;18076;52.154;10.570;2024-03-02T03:55:18;7.00;99.90
21312;DHT22;18076;52.154;10.570;2024-03-02T03:57:44;7.00;99.90
21312;DHT22;18076;52.154;10.570;2024-03-02T04:00:10;7.00;99.90
21312;DHT22;18076;52.154;10.570;2024-03-02T04:02:36;7.00;99.90
21312;DHT22;18076;52.154;10.570;2024-03-02T04:05:01;7.00;99.90
21312;DHT22;18076;52.154;10.570;2024-03-02T04:07:30;7.00;99.90
21312;DHT22;18076;52.154;10.570;2024-03-02T04:09:55;7.00;99.90
21312;DHT22;18076;52.154;10.570;2024-03-02T04:12:21;7.00;99.90
21312;DHT22;18076;52.154;10.570;2024-03-02T04:14:47;7.00;99.90
21312;DHT22;18076;52.154;10.570;2024-03-02T04:17:12;7.10;99.90
21312;DHT22;18076;52.154;10.570;2024-03-02T04:19:38;7.00;99.90
21312;DHT22;18076;52.154;10.570;2024-03-02T04:22:04;7.10;99.90
21312;DHT22;18076;52.154;10.570;2024-03-02T04:24:29;7.00;99.90
21312;DHT22;18076;52.154;10.570;2024-03-02T04:26:55;7.00;99.90
21312;DHT22;18076;52.154;10.570;2024-03-02T04:29:21;7.00;99.90
21312;DHT22;18076;52.154;10.570;2024-03-02T04:31:46;7.00;99.90
21312;DHT22;18076;52.154;10.570;2024-03-02T04:34:12;7.00;99.90
21312;DHT22;18076;52.154;10.570;2024-03-02T04:36:37;6.90;99.90
21312;DHT22;18076;52.154;10.570;2024-03-02T04:39:03;6.90;99.90
21312;DHT22;18076;52.154;10.570;2024-03-02T04:41:29;6.90;99.90
21312;DHT22;18076;52.154;10.570;2024-03-02T04:43:54;6.80;99.90
21312;DHT22;18076;52.154;10.570;2024-03-02T04:46:20;6.70;99.90
21312;DHT22;18076;52.154;10.570;2024-03-02T04:48:45;6.70;99.90
21312;DHT22;18076;52.154;10.570;2024-03-02T04:51:11;6.70;99.90
21312;DHT22;18076;52.154;10.570;2024-03-02T04:53:39;6.70;99.90
21312;DHT22;18076;52.154;10.570;2024-03-02T04:56:05;6.60;99.90
21312;DHT22;18076;52.154;10.570;2024-03-02T04:59:05;6.70;99.90
21312;DHT22;18076;52.154;10.570;2024-03-02T05:01:31;6.70;99.90
21312;DHT22;18076;52.154;10.570;2024-03-02T05:03:57;6.70;99.90
21312;DHT22;18076;52.154;10.570;2024-03-02T05:06:22;6.60;99.90
21312;DHT22;18076;52.154;10.570;2024-03-02T05:08:49;6.70;99.90
21312;DHT22;18076;52.154;10.570;2024-03-02T05:11:14;6.70;99.90
21312;DHT22;18076;52.154;10.570;2024-03-02T05:13:58;6.70;99.90
21312;DHT22;18076;52.154;10.570;2024-03-02T05:16:24;6.70;99.90
21312;DHT22;18076;52.154;10.570;2024-03-02T05:18:49;6.60;99.90
21312;DHT22;18076;52.154;10.570;2024-03-02T05:21:15;6.70;99.90
21312;DHT22;18076;52.154;10.570;2024-03-02T05:23:40;6.70;99.90
21312;DHT22;18076;52.154;10.570;2024-03-02T05:26:06;6.60;99.90
21312;DHT22;18076;52.154;10.570;2024-03-02T05:28:32;6.60;99.90
21312;DHT22;18076;52.154;10.570;2024-03-02T05:30:57;6.60;99.90
21312;DHT22;18076;52.154;10.570;2024-03-02T05:33:23;6.60;99.90
21312;DHT22;18076;52.154;10.570;2024-03-02T05:35:48;6.60;99.90
21312;DHT22;18076;52.154;10.570;2024-03-02T05:38:17;6.60;99.90
21312;DHT22;18076;52.154;10.570;2024-03-02T05:40:42;6.60;99.90
21312;DHT22;18076;52.154;10.570;2024-03-02T05:43:08;6.60;99.90
21312;DHT22;18076;52.154;10.570;2024-03-02T05:45:33;6.60;99.90
21312;DHT22;18076;52.154;10.570;2024-03-02T05:47:59;6.60;99.90
21312;DHT22;18076;52.154;10.570;2024-03-02T05:50:31;6.50;99.90
21312;DHT22;18076;52.154;10.570;2024-03-02T05:52:56;6.50;99.90
21312;DHT22;18076;52.154;10.570;2024-03-02T05:55:24;6.50;99.90
21312;DHT22;18076;52.154;10.570;2024-03-02T05:57:49;6.50;99.90
21312;DHT22;18076;52.154;10.570;2024-03-02T06:00:40;6.50;99.90
21312;DHT22;18076;52.154;10.570;2024-03-02T06:03:09;6.50;99.90
21312;DHT22;18076;52.154;10.570;2024-03-02T06:05:34;6.50;99.90
21312;DHT22;18076;52.154;10.570;2024-03-02T06:08:00;6.50;99.90
21312;DHT22;18076;52.154;10.570;2024-03-02T06:10:25;6.50;99.90
21312;DHT22;18076;52.154;10.570;2024-03-02T06:12:53;6.50;99.90
21312;DHT22;18076;52.154;10.570;2024-03-02T06:15:48;6.60;99.90
21312;DHT22;18076;52.154;10.570;2024-03-02T06:18:17;6.60;99.90
21312;DHT22;18076;52.154;10.570;2024-03-02T06:20:43;6.50;99.90
21312;DHT22;18076;52.154;10.570;2024-03-02T06:23:08;6.40;99.90
21312;DHT22;18076;52.154;10.570;2024-03-02T06:25:34;6.40;99.90
21312;DHT22;18076;52.154;10.570;2024-03-02T06:28:00;6.40;99.90
21312;DHT22;18076;52.154;10.570;2024-03-02T06:30:27;6.40;99.90
21312;DHT22;18076;52.154;10.570;2024-03-02T06:32:53;6.50;99.90
21312;DHT22;18076;52.154;10.570;2024-03-02T06:35:18;6.50;99.90
21312;DHT22;18076;52.154;10.570;2024-03-02T06:37:44;6.60;99.90
21312;DHT22;18076;52.154;10.570;2024-03-02T06:40:09;6.50;99.90
21312;DHT22;18076;52.154;10.570;2024-03-02T06:45:50;6.40;99.90
21312;DHT22;18076;52.154;10.570;2024-03-02T06:48:16;6.30;99.90
21312;DHT22;18076;52.154;10.570;2024-03-02T06:50:48;6.30;99.90
21312;DHT22;18076;52.154;10.570;2024-03-02T06:53:14;6.40;99.90
21312;DHT22;18076;52.154;10.570;2024-03-02T06:55:46;6.50;99.90
21312;DHT22;18076;52.154;10.570;2024-03-02T06:58:15;6.50;99.90
21312;DHT22;18076;52.154;10.570;2024-03-02T07:00:41;6.50;99.90
21312;DHT22;18076;52.154;10.570;2024-03-02T07:03:07;6.40;99.90
21312;DHT22;18076;52.154;10.570;2024-03-02T07:05:32;6.40;99.90
21312;DHT22;18076;52.154;10.570;2024-03-02T07:07:58;6.30;99.90
21312;DHT22;18076;52.154;10.570;2024-03-02T07:10:23;6.40;99.90
21312;DHT22;18076;52.154;10.570;2024-03-02T07:12:49;6.40;99.90
21312;DHT22;18076;52.154;10.570;2024-03-02T07:15:15;6.40;99.90
21312;DHT22;18076;52.154;10.570;2024-03-02T07:17:52;6.50;99.90
21312;DHT22;18076;52.154;10.570;2024-03-02T07:20:19;6.60;99.90
21312;DHT22;18076;52.154;10.570;2024-03-02T07:23:17;6.70;99.90
21312;DHT22;18076;52.154;10.570;2024-03-02T07:25:44;6.80;99.90
21312;DHT22;18076;52.154;10.570;2024-03-02T07:28:10;6.80;99.90
21312;DHT22;18076;52.154;10.570;2024-03-02T07:30:36;6.90;99.90
21312;DHT22;18076;52.154;10.570;2024-03-02T07:33:03;6.90;99.90
21312;DHT22;18076;52.154;10.570;2024-03-02T07:35:29;7.00;99.90
21312;DHT22;18076;52.154;10.570;2024-03-02T07:37:57;7.10;99.90
21312;DHT22;18076;52.154;10.570;2024-03-02T07:40:22;7.20;99.90
21312;DHT22;18076;52.154;10.570;2024-03-02T07:42:48;7.20;99.90
21312;DHT22;18076;52.154;10.570;2024-03-02T07:45:14;7.30;99.90
21312;DHT22;18076;52.154;10.570;2024-03-02T07:47:40;7.40;99.90
21312;DHT22;18076;52.154;10.570;2024-03-02T07:50:05;7.50;99.90
21312;DHT22;18076;52.154;10.570;2024-03-02T07:52:34;7.60;99.90
21312;DHT22;18076;52.154;10.570;2024-03-02T07:55:00;7.70;99.90
21312;DHT22;18076;52.154;10.570;2024-03-02T07:57:25;7.90;99.90
21312;DHT22;18076;52.154;10.570;2024-03-02T07:59:51;8.10;99.90
21312;DHT22;18076;52.154;10.570;2024-03-02T08:02:16;8.30;99.90
21312;DHT22;18076;52.154;10.570;2024-03-02T08:04:42;8.50;99.90
21312;DHT22;18076;52.154;10.570;2024-03-02T08:07:07;9.00;99.90
21312;DHT22;18076;52.154;10.570;2024-03-02T08:09:34;9.40;99.90
21312;DHT22;18076;52.154;10.570;2024-03-02T08:12:00;10.10;99.90
21312;DHT22;18076;52.154;10.570;2024-03-02T08:14:25;10.50;99.90
21312;DHT22;18076;52.154;10.570;2024-03-02T08:16:51;11.10;99.90
21312;DHT22;18076;52.154;10.570;2024-03-02T08:19:16;11.70;99.90
21312;DHT22;18076;52.154;10.570;2024-03-02T08:21:42;12.40;99.90
21312;DHT22;18076;52.154;10.570;2024-03-02T08:24:08;13.00;99.90
21312;DHT22;18076;52.154;10.570;2024-03-02T08:26:34;13.50;99.90
21312;DHT22;18076;52.154;10.570;2024-03-02T08:29:00;13.80;99.90
21312;DHT22;18076;52.154;10.570;2024-03-02T08:31:29;14.30;99.90
21312;DHT22;18076;52.154;10.570;2024-03-02T08:33:55;14.60;99.90
21312;DHT22;18076;52.154;10.570;2024-03-02T08:36:22;14.70;99.90
21312;DHT22;18076;52.154;10.570;2024-03-02T08:38:48;15.20;99.90
21312;DHT22;18076;52.154;10.570;2024-03-02T08:41:14;15.60;99.90
21312;DHT22;18076;52.154;10.570;2024-03-02T08:43:41;15.70;99.90
21312;DHT22;18076;52.154;10.570;2024-03-02T08:46:07;15.40;99.90
21312;DHT22;18076;52.154;10.570;2024-03-02T08:48:33;14.70;99.90
21312;DHT22;18076;52.154;10.570;2024-03-02T08:50:58;14.20;99.90
21312;DHT22;18076;52.154;10.570;2024-03-02T08:53:24;13.70;99.90
21312;DHT22;18076;52.154;10.570;2024-03-02T08:55:49;13.40;99.90
21312;DHT22;18076;52.154;10.570;2024-03-02T08:58:15;13.20;99.90
21312;DHT22;18076;52.154;10.570;2024-03-02T09:00:40;13.00;99.90
21312;DHT22;18076;52.154;10.570;2024-03-02T09:03:06;12.90;99.90
21312;DHT22;18076;52.154;10.570;2024-03-02T09:05:32;12.70;99.90
21312;DHT22;18076;52.154;10.570;2024-03-02T09:07:57;12.60;99.90
21312;DHT22;18076;52.154;10.570;2024-03-02T09:10:23;12.60;99.90
21312;DHT22;18076;52.154;10.570;2024-03-02T09:12:49;12.60;99.90
21312;DHT22;18076;52.154;10.570;2024-03-02T09:15:14;13.00;99.90
21312;DHT22;18076;52.154;10.570;2024-03-02T09:17:40;13.10;99.90
21312;DHT22;18076;52.154;10.570;2024-03-02T09:20:06;13.60;99.90
21312;DHT22;18076;52.154;10.570;2024-03-02T09:22:31;14.10;99.90
21312;DHT22;18076;52.154;10.570;2024-03-02T09:24:57;14.50;99.90
21312;DHT22;18076;52.154;10.570;2024-03-02T09:27:23;14.60;99.90
21312;DHT22;18076;52.154;10.570;2024-03-02T09:29:49;14.80;99.90
21312;DHT22;18076;52.154;10.570;2024-03-02T09:32:14;15.10;99.90
21312;DHT22;18076;52.154;10.570;2024-03-02T09:34:41;15.30;99.90
21312;DHT22;18076;52.154;10.570;2024-03-02T09:37:06;15.50;99.90
21312;DHT22;18076;52.154;10.570;2024-03-02T09:39:32;15.50;99.90
21312;DHT22;18076;52.154;10.570;2024-03-02T09:41:58;15.50;99.90
21312;DHT22;18076;52.154;10.570;2024-03-02T09:44:24;15.90;99.90
21312;DHT22;18076;52.154;10.570;2024-03-02T09:46:50;16.10;99.90
21312;DHT22;18076;52.154;10.570;2024-03-02T09:49:16;15.60;99.90
21312;DHT22;18076;52.154;10.570;2024-03-02T09:51:44;15.10;99.90
21312;DHT22;18076;52.154;10.570;2024-03-02T09:54:11;14.70;99.90
21312;DHT22;18076;52.154;10.570;2024-03-02T09:56:37;14.40;99.90
21312;DHT22;18076;52.154;10.570;2024-03-02T09:59:02;14.10;99.90
21312;DHT22;18076;52.154;10.570;2024-03-02T10:01:28;14.00;99.90
21312;DHT22;18076;52.154;10.570;2024-03-02T10:03:53;13.80;99.90
21312;DHT22;18076;52.154;10.570;2024-03-02T10:06:20;13.90;99.90
21312;DHT22;18076;52.154;10.570;2024-03-02T10:08:46;13.90;99.90
21312;DHT22;18076;52.154;10.570;2024-03-02T10:11:24;13.90;99.90
21312;DHT22;18076;52.154;10.570;2024-03-02T10:13:50;13.90;99.90
21312;DHT22;18076;52.154;10.570;2024-03-02T10:16:16;14.00;99.90
21312;DHT22;18076;52.154;10.570;2024-03-02T10:18:42;14.00;99.90
21312;DHT22;18076;52.154;10.570;2024-03-02T10:21:14;14.20;99.90
21312;DHT22;18076;52.154;10.570;2024-03-02T10:23:40;14.60;99.90
21312;DHT22;18076;52.154;10.570;2024-03-02T10:26:18;14.80;99.90
21312;DHT22;18076;52.154;10.570;2024-03-02T10:28:47;15.20;99.90
21312;DHT22;18076;52.154;10.570;2024-03-02T10:31:13;15.70;99.90
21312;DHT22;18076;52.154;10.570;2024-03-02T10:33:38;16.10;99.90
21312;DHT22;18076;52.154;10.570;2024-03-02T10:36:05;16.60;99.90
21312;DHT22;18076;52.154;10.570;2024-03-02T10:38:30;17.00;99.90
21312;DHT22;18076;52.154;10.570;2024-03-02T10:40:57;17.00;99.90
21312;DHT22;18076;52.154;10.570;2024-03-02T10:43:25;17.20;99.90
21312;DHT22;18076;52.154;10.570;2024-03-02T10:45:51;17.80;99.90
21312;DHT22;18076;52.154;10.570;2024-03-02T10:48:17;17.70;99.90
21312;DHT22;18076;52.154;10.570;2024-03-02T10:50:43;17.50;99.90
21312;DHT22;18076;52.154;10.570;2024-03-02T10:53:08;17.50;99.90
21312;DHT22;18076;52.154;10.570;2024-03-02T10:55:34;17.40;99.90
21312;DHT22;18076;52.154;10.570;2024-03-02T10:58:00;17.30;99.90
21312;DHT22;18076;52.154;10.570;2024-03-02T11:00:29;16.80;99.90
21312;DHT22;18076;52.154;10.570;2024-03-02T11:03:02;16.40;99.90
21312;DHT22;18076;52.154;10.570;2024-03-02T11:05:36;15.90;99.90
21312;DHT22;18076;52.154;10.570;2024-03-02T11:08:02;15.50;99.90
21312;DHT22;18076;52.154;10.570;2024-03-02T11:10:41;15.30;99.90
21312;DHT22;18076;52.154;10.570;2024-03-02T11:13:11;15.20;99.90
21312;DHT22;18076;52.154;10.570;2024-03-02T11:15:36;15.20;99.90
21312;DHT22;18076;52.154;10.570;2024-03-02T11:18:03;15.10;99.90
21312;DHT22;18076;52.154;10.570;2024-03-02T11:20:30;14.90;99.90
21312;DHT22;18076;52.154;10.570;2024-03-02T11:22:56;14.90;99.90
21312;DHT22;18076;52.154;10.570;2024-03-02T11:25:25;14.70;99.90
21312;DHT22;18076;52.154;10.570;2024-03-02T11:33:07;14.50;99.90
21312;DHT22;18076;52.154;10.570;2024-03-02T11:35:36;14.70;99.90
21312;DHT22;18076;52.154;10.570;2024-03-02T11:38:02;14.80;99.90
21312;DHT22;18076;52.154;10.570;2024-03-02T11:40:28;15.00;99.90
21312;DHT22;18076;52.154;10.570;2024-03-02T11:42:54;14.90;99.90
21312;DHT22;18076;52.154;10.570;2024-03-02T11:45:26;14.90;99.90
21312;DHT22;18076;52.154;10.570;2024-03-02T11:47:56;15.00;99.90
21312;DHT22;18076;52.154;10.570;2024-03-02T11:50:35;15.00;99.90
21312;DHT22;18076;52.154;10.570;2024-03-02T11:53:05;15.20;99.90
21312;DHT22;18076;52.154;10.570;2024-03-02T11:55:34;15.40;99.90
21312;DHT22;18076;52.154;10.570;2024-03-02T11:58:01;15.60;99.90
21312;DHT22;18076;52.154;10.570;2024-03-02T12:00:27;15.80;99.90
21312;DHT22;18076;52.154;10.570;2024-03-02T12:02:59;16.10;99.90
21312;DHT22;18076;52.154;10.570;2024-03-02T12:05:26;16.30;99.90
21312;DHT22;18076;52.154;10.570;2024-03-02T12:07:55;16.50;99.90
21312;DHT22;18076;52.154;10.570;2024-03-02T12:10:21;16.60;99.90
21312;DHT22;18076;52.154;10.570;2024-03-02T12:12:46;16.50;99.90
21312;DHT22;18076;52.154;10.570;2024-03-02T12:15:12;16.70;99.90
21312;DHT22;18076;52.154;10.570;2024-03-02T12:17:37;17.10;99.90
21312;DHT22;18076;52.154;10.570;2024-03-02T12:20:04;17.40;99.90
21312;DHT22;18076;52.154;10.570;2024-03-02T12:22:30;17.70;99.90
21312;DHT22;18076;52.154;10.570;2024-03-02T12:24:56;17.50;99.90
21312;DHT22;18076;52.154;10.570;2024-03-02T12:27:21;17.40;99.90
21312;DHT22;18076;52.154;10.570;2024-03-02T12:29:47;17.60;99.90
21312;DHT22;18076;52.154;10.570;2024-03-02T12:32:13;17.80;99.90
21312;DHT22;18076;52.154;10.570;2024-03-02T12:34:39;17.90;99.90
21312;DHT22;18076;52.154;10.570;2024-03-02T12:37:05;18.00;99.90
21312;DHT22;18076;52.154;10.570;2024-03-02T12:39:30;18.30;99.90
21312;DHT22;18076;52.154;10.570;2024-03-02T12:41:58;18.50;99.90
21312;DHT22;18076;52.154;10.570;2024-03-02T12:44:23;18.30;99.90
21312;DHT22;18076;52.154;10.570;2024-03-02T12:46:49;18.30;99.90
21312;DHT22;18076;52.154;10.570;2024-03-02T12:49:15;18.30;99.90
21312;DHT22;18076;52.154;10.570;2024-03-02T12:51:45;18.30;99.90
21312;DHT22;18076;52.154;10.570;2024-03-02T12:54:16;18.40;99.90
21312;DHT22;18076;52.154;10.570;2024-03-02T12:56:42;18.70;99.90
21312;DHT22;18076;52.154;10.570;2024-03-02T12:59:17;18.80;99.90
21312;DHT22;18076;52.154;10.570;2024-03-02T13:01:49;18.90;99.90
21312;DHT22;18076;52.154;10.570;2024-03-02T13:04:15;18.60;99.90
21312;DHT22;18076;52.154;10.570;2024-03-02T13:06:40;18.50;99.90
21312;DHT22;18076;52.154;10.570;2024-03-02T13:09:06;18.30;99.90
21312;DHT22;18076;52.154;10.570;2024-03-02T13:11:40;18.10;99.90
21312;DHT22;18076;52.154;10.570;2024-03-02T13:14:05;18.00;99.90
21312;DHT22;18076;52.154;10.570;2024-03-02T13:16:31;17.90;99.90
21312;DHT22;18076;52.154;10.570;2024-03-02T13:18:56;17.90;99.90
21312;DHT22;18076;52.154;10.570;2024-03-02T13:21:22;17.80;99.90
21312;DHT22;18076;52.154;10.570;2024-03-02T13:23:47;17.80;99.90
21312;DHT22;18076;52.154;10.570;2024-03-02T13:26:13;17.90;99.90
21312;DHT22;18076;52.154;10.570;2024-03-02T13:28:39;17.80;99.90
21312;DHT22;18076;52.154;10.570;2024-03-02T13:31:04;17.90;99.90
21312;DHT22;18076;52.154;10.570;2024-03-02T13:33:30;17.90;99.90
21312;DHT22;18076;52.154;10.570;2024-03-02T13:35:58;17.70;99.90
21312;DHT22;18076;52.154;10.570;2024-03-02T13:38:23;17.60;99.90
21312;DHT22;18076;52.154;10.570;2024-03-02T13:40:49;17.50;99.90
21312;DHT22;18076;52.154;10.570;2024-03-02T13:43:17;17.50;99.90
21312;DHT22;18076;52.154;10.570;2024-03-02T13:45:44;17.40;99.90
21312;DHT22;18076;52.154;10.570;2024-03-02T13:48:10;17.50;99.90
21312;DHT22;18076;52.154;10.570;2024-03-02T13:50:35;17.40;99.90
21312;DHT22;18076;52.154;10.570;2024-03-02T13:53:01;17.30;99.90
21312;DHT22;18076;52.154;10.570;2024-03-02T13:55:28;17.00;99.90
21312;DHT22;18076;52.154;10.570;2024-03-02T13:57:53;16.70;99.90
21312;DHT22;18076;52.154;10.570;2024-03-02T14:00:19;16.60;99.90
21312;DHT22;18076;52.154;10.570;2024-03-02T14:02:48;16.60;99.90
21312;DHT22;18076;52.154;10.570;2024-03-02T14:05:16;16.50;99.90
21312;DHT22;18076;52.154;10.570;2024-03-02T14:07:42;16.50;99.90
21312;DHT22;18076;52.154;10.570;2024-03-02T14:10:08;16.80;99.90
21312;DHT22;18076;52.154;10.570;2024-03-02T14:12:34;17.10;99.90
21312;DHT22;18076;52.154;10.570;2024-03-02T14:14:59;17.40;99.90
21312;DHT22;18076;52.154;10.570;2024-03-02T14:17:27;17.60;99.90
21312;DHT22;18076;52.154;10.570;2024-03-02T14:19:53;17.60;99.90
21312;DHT22;18076;52.154;10.570;2024-03-02T14:22:19;17.60;99.90
21312;DHT22;18076;52.154;10.570;2024-03-02T14:24:45;17.50;99.90
21312;DHT22;18076;52.154;10.570;2024-03-02T14:27:10;17.50;99.90
21312;DHT22;18076;52.154;10.570;2024-03-02T14:29:36;17.50;99.90
21312;DHT22;18076;52.154;10.570;2024-03-02T14:32:05;17.30;99.90
21312;DHT22;18076;52.154;10.570;2024-03-02T14:34:30;17.10;99.90
21312;DHT22;18076;52.154;10.570;2024-03-02T14:36:56;17.10;99.90
21312;DHT22;18076;52.154;10.570;2024-03-02T14:39:21;17.10;99.90
21312;DHT22;18076;52.154;10.570;2024-03-02T14:41:48;17.00;99.90
21312;DHT22;18076;52.154;10.570;2024-03-02T14:44:14;16.80;99.90
21312;DHT22;18076;52.154;10.570;2024-03-02T14:46:40;16.90;99.90
21312;DHT22;18076;52.154;10.570;2024-03-02T14:49:06;16.80;99.90
21312;DHT22;18076;52.154;10.570;2024-03-02T14:51:31;16.70;99.90
21312;DHT22;18076;52.154;10.570;2024-03-02T14:53:57;16.50;99.90
21312;DHT22;18076;52.154;10.570;2024-03-02T14:56:22;16.40;99.90
21312;DHT22;18076;52.154;10.570;2024-03-02T14:58:48;16.30;99.90
21312;DHT22;18076;52.154;10.570;2024-03-02T15:01:14;16.30;99.90
21312;DHT22;18076;52.154;10.570;2024-03-02T15:03:50;16.20;99.90
21312;DHT22;18076;52.154;10.570;2024-03-02T15:06:16;16.00;99.90
21312;DHT22;18076;52.154;10.570;2024-03-02T15:08:42;15.80;99.90
21312;DHT22;18076;52.154;10.570;2024-03-02T15:11:08;15.60;99.90
21312;DHT22;18076;52.154;10.570;2024-03-02T15:13:56;15.60;99.90
21312;DHT22;18076;52.154;10.570;2024-03-02T15:16:30;15.50;99.90
21312;DHT22;18076;52.154;10.570;2024-03-02T15:18:55;15.40;99.90
21312;DHT22;18076;52.154;10.570;2024-03-02T15:21:21;15.30;99.90
21312;DHT22;18076;52.154;10.570;2024-03-02T15:23:46;15.20;99.90
21312;DHT22;18076;52.154;10.570;2024-03-02T15:26:12;15.20;99.90
21312;DHT22;18076;52.154;10.570;2024-03-02T15:28:40;15.00;99.90
21312;DHT22;18076;52.154;10.570;2024-03-02T15:31:06;15.00;99.90
21312;DHT22;18076;52.154;10.570;2024-03-02T15:33:31;14.90;99.90
21312;DHT22;18076;52.154;10.570;2024-03-02T15:36:00;14.70;99.90